Terminal Aerodrome Forecast
Issued by NWS

Home | Current Version | Previous Version | Text Only | Print | Product List | Glossary On
Versions: 1 2 3 4 5 6 7 8 9 10 11 12
000
FTUS45 KPIH 312320
TAFSUN
TAF
KSUN 312320Z 0100/0124 14010KT P6SM VCSH OVC150
     FM010300 22008KT P6SM VCSH SCT080 BKN120
     FM010500 31008KT P6SM SCT080 BKN120
     FM011800 16010KT P6SM VCTS SCT080CB
      AMD LTD TO CLD VIS AND WIND 0105/0113=

USA.gov is the U.S. government's official web portal to all federal, state and local government web resources and services.